sensor_id;sensor_type;location;lat;lon;timestamp;temperature;humidity
6270;DHT22;3168;51.684;6.954;2023-03-26T00:00:09;7.90;17.20
6270;DHT22;3168;51.684;6.954;2023-03-26T00:02:35;8.00;16.60
6270;DHT22;3168;51.684;6.954;2023-03-26T00:05:01;8.00;16.60
6270;DHT22;3168;51.684;6.954;2023-03-26T00:07:26;8.00;16.60
6270;DHT22;3168;51.684;6.954;2023-03-26T00:09:52;8.10;16.60
6270;DHT22;3168;51.684;6.954;2023-03-26T00:12:19;8.20;12.90
6270;DHT22;3168;51.684;6.954;2023-03-26T00:14:45;8.10;12.70
6270;DHT22;3168;51.684;6.954;2023-03-26T00:17:10;8.20;12.80
6270;DHT22;3168;51.684;6.954;2023-03-26T00:19:36;8.20;13.40
6270;DHT22;3168;51.684;6.954;2023-03-26T00:22:03;8.30;12.10
6270;DHT22;3168;51.684;6.954;2023-03-26T00:24:29;8.30;12.30
6270;DHT22;3168;51.684;6.954;2023-03-26T00:26:54;8.30;11.60
6270;DHT22;3168;51.684;6.954;2023-03-26T00:29:21;8.40;11.00
6270;DHT22;3168;51.684;6.954;2023-03-26T00:31:46;8.40;8.80
6270;DHT22;3168;51.684;6.954;2023-03-26T00:34:12;8.40;8.80
6270;DHT22;3168;51.684;6.954;2023-03-26T00:36:38;8.40;8.80
6270;DHT22;3168;51.684;6.954;2023-03-26T00:39:04;8.40;8.80
6270;DHT22;3168;51.684;6.954;2023-03-26T00:41:29;8.40;8.80
6270;DHT22;3168;51.684;6.954;2023-03-26T00:43:56;8.50;11.90
6270;DHT22;3168;51.684;6.954;2023-03-26T00:46:22;8.50;9.90
6270;DHT22;3168;51.684;6.954;2023-03-26T00:48:48;8.40;8.80
6270;DHT22;3168;51.684;6.954;2023-03-26T00:51:14;8.40;8.80
6270;DHT22;3168;51.684;6.954;2023-03-26T00:53:40;8.40;8.80
6270;DHT22;3168;51.684;6.954;2023-03-26T00:56:07;8.40;8.80
6270;DHT22;3168;51.684;6.954;2023-03-26T00:58:32;8.40;8.80
6270;DHT22;3168;51.684;6.954;2023-03-26T01:00:59;8.40;8.80
6270;DHT22;3168;51.684;6.954;2023-03-26T01:03:25;8.40;8.80
6270;DHT22;3168;51.684;6.954;2023-03-26T01:05:51;8.50;8.60
6270;DHT22;3168;51.684;6.954;2023-03-26T01:08:20;8.40;8.80
6270;DHT22;3168;51.684;6.954;2023-03-26T01:10:44;8.40;7.60
6270;DHT22;3168;51.684;6.954;2023-03-26T01:13:09;8.40;8.80
6270;DHT22;3168;51.684;6.954;2023-03-26T01:15:35;8.50;9.00
6270;DHT22;3168;51.684;6.954;2023-03-26T01:18:04;8.60;8.80
6270;DHT22;3168;51.684;6.954;2023-03-26T01:20:29;8.50;3.40
6270;DHT22;3168;51.684;6.954;2023-03-26T01:22:56;8.60;2.40
6270;DHT22;3168;51.684;6.954;2023-03-26T01:25:21;8.60;3.10
6270;DHT22;3168;51.684;6.954;2023-03-26T01:27:48;8.60;2.20
6270;DHT22;3168;51.684;6.954;2023-03-26T01:33:05;8.60;1.00
6270;DHT22;3168;51.684;6.954;2023-03-26T01:35:44;8.50;1.30
6270;DHT22;3168;51.684;6.954;2023-03-26T01:38:12;8.50;4.70
6270;DHT22;3168;51.684;6.954;2023-03-26T01:40:46;8.50;8.90
6270;DHT22;3168;51.684;6.954;2023-03-26T01:43:20;8.50;8.90
6270;DHT22;3168;51.684;6.954;2023-03-26T01:45:43;8.50;10.70
6270;DHT22;3168;51.684;6.954;2023-03-26T01:48:08;8.40;12.40
6270;DHT22;3168;51.684;6.954;2023-03-26T01:50:34;8.40;15.70
6270;DHT22;3168;51.684;6.954;2023-03-26T01:53:00;8.50;16.90
6270;DHT22;3168;51.684;6.954;2023-03-26T01:55:44;8.40;15.90
6270;DHT22;3168;51.684;6.954;2023-03-26T01:58:11;8.40;16.70
6270;DHT22;3168;51.684;6.954;2023-03-26T02:00:40;8.40;16.40
6270;DHT22;3168;51.684;6.954;2023-03-26T02:03:11;8.40;17.10
6270;DHT22;3168;51.684;6.954;2023-03-26T02:05:37;8.30;16.80
6270;DHT22;3168;51.684;6.954;2023-03-26T02:08:07;8.30;16.80
6270;DHT22;3168;51.684;6.954;2023-03-26T02:10:33;8.30;16.70
6270;DHT22;3168;51.684;6.954;2023-03-26T02:12:57;8.20;14.40
6270;DHT22;3168;51.684;6.954;2023-03-26T02:15:23;8.20;14.80
6270;DHT22;3168;51.684;6.954;2023-03-26T02:17:49;8.20;17.30
6270;DHT22;3168;51.684;6.954;2023-03-26T02:20:15;8.10;17.20
6270;DHT22;3168;51.684;6.954;2023-03-26T02:22:42;8.10;18.60
6270;DHT22;3168;51.684;6.954;2023-03-26T02:25:09;8.10;18.50
6270;DHT22;3168;51.684;6.954;2023-03-26T02:27:35;8.20;18.40
6270;DHT22;3168;51.684;6.954;2023-03-26T02:30:01;8.20;18.40
6270;DHT22;3168;51.684;6.954;2023-03-26T02:32:27;8.20;17.60
6270;DHT22;3168;51.684;6.954;2023-03-26T02:34:52;8.10;13.90
6270;DHT22;3168;51.684;6.954;2023-03-26T02:37:18;8.10;13.30
6270;DHT22;3168;51.684;6.954;2023-03-26T02:39:44;8.00;13.20
6270;DHT22;3168;51.684;6.954;2023-03-26T02:42:10;7.90;12.70
6270;DHT22;3168;51.684;6.954;2023-03-26T02:44:36;7.90;12.60
6270;DHT22;3168;51.684;6.954;2023-03-26T02:47:02;7.90;12.50
6270;DHT22;3168;51.684;6.954;2023-03-26T02:49:28;7.80;14.90
6270;DHT22;3168;51.684;6.954;2023-03-26T02:51:54;7.80;14.90
6270;DHT22;3168;51.684;6.954;2023-03-26T02:54:20;7.80;15.80
6270;DHT22;3168;51.684;6.954;2023-03-26T02:56:46;7.80;14.90
6270;DHT22;3168;51.684;6.954;2023-03-26T02:59:11;7.80;16.40
6270;DHT22;3168;51.684;6.954;2023-03-26T03:01:37;7.80;18.60
6270;DHT22;3168;51.684;6.954;2023-03-26T03:04:04;7.80;16.50
6270;DHT22;3168;51.684;6.954;2023-03-26T03:06:30;7.80;16.50
6270;DHT22;3168;51.684;6.954;2023-03-26T03:08:56;7.70;14.60
6270;DHT22;3168;51.684;6.954;2023-03-26T03:11:22;7.60;14.60
6270;DHT22;3168;51.684;6.954;2023-03-26T03:13:49;7.80;15.30
6270;DHT22;3168;51.684;6.954;2023-03-26T03:16:15;7.80;13.00
6270;DHT22;3168;51.684;6.954;2023-03-26T03:18:41;7.80;9.30
6270;DHT22;3168;51.684;6.954;2023-03-26T03:21:06;7.80;7.70
6270;DHT22;3168;51.684;6.954;2023-03-26T03:23:32;7.90;7.30
6270;DHT22;3168;51.684;6.954;2023-03-26T03:25:58;7.90;4.40
6270;DHT22;3168;51.684;6.954;2023-03-26T03:28:24;7.90;4.20
6270;DHT22;3168;51.684;6.954;2023-03-26T03:30:50;8.00;1.90
6270;DHT22;3168;51.684;6.954;2023-03-26T03:33:19;8.00;1.00
6270;DHT22;3168;51.684;6.954;2023-03-26T03:35:45;8.10;1.00
6270;DHT22;3168;51.684;6.954;2023-03-26T03:38:10;8.00;1.00
6270;DHT22;3168;51.684;6.954;2023-03-26T03:40:36;8.10;1.00
6270;DHT22;3168;51.684;6.954;2023-03-26T03:43:02;8.10;1.00
6270;DHT22;3168;51.684;6.954;2023-03-26T03:45:28;8.20;1.00
6270;DHT22;3168;51.684;6.954;2023-03-26T03:47:54;8.20;1.00
6270;DHT22;3168;51.684;6.954;2023-03-26T03:50:20;8.20;1.00
6270;DHT22;3168;51.684;6.954;2023-03-26T03:52:45;8.20;1.00
6270;DHT22;3168;51.684;6.954;2023-03-26T03:55:11;8.20;1.00
6270;DHT22;3168;51.684;6.954;2023-03-26T03:57:37;8.10;1.00
6270;DHT22;3168;51.684;6.954;2023-03-26T04:00:03;8.10;1.00
6270;DHT22;3168;51.684;6.954;2023-03-26T04:02:29;8.10;1.00
6270;DHT22;3168;51.684;6.954;2023-03-26T04:04:55;8.10;1.00
6270;DHT22;3168;51.684;6.954;2023-03-26T04:07:21;8.10;1.00
6270;DHT22;3168;51.684;6.954;2023-03-26T04:09:47;8.10;1.00
6270;DHT22;3168;51.684;6.954;2023-03-26T04:12:13;8.10;1.00
6270;DHT22;3168;51.684;6.954;2023-03-26T04:14:39;8.10;1.00
6270;DHT22;3168;51.684;6.954;2023-03-26T04:17:06;8.10;1.00
6270;DHT22;3168;51.684;6.954;2023-03-26T04:19:31;8.10;1.00
6270;DHT22;3168;51.684;6.954;2023-03-26T04:21:57;8.10;1.00
6270;DHT22;3168;51.684;6.954;2023-03-26T04:24:24;8.10;1.00
6270;DHT22;3168;51.684;6.954;2023-03-26T04:26:50;8.20;1.00
6270;DHT22;3168;51.684;6.954;2023-03-26T04:29:15;8.20;1.00
6270;DHT22;3168;51.684;6.954;2023-03-26T04:31:41;8.30;1.00
6270;DHT22;3168;51.684;6.954;2023-03-26T04:34:08;8.30;1.00
6270;DHT22;3168;51.684;6.954;2023-03-26T04:36:33;8.30;1.00
6270;DHT22;3168;51.684;6.954;2023-03-26T04:38:59;8.20;1.00
6270;DHT22;3168;51.684;6.954;2023-03-26T04:41:26;8.10;1.00
6270;DHT22;3168;51.684;6.954;2023-03-26T04:43:52;8.10;1.00
6270;DHT22;3168;51.684;6.954;2023-03-26T04:46:18;8.20;1.00
6270;DHT22;3168;51.684;6.954;2023-03-26T04:48:44;8.20;1.00
6270;DHT22;3168;51.684;6.954;2023-03-26T04:51:12;8.30;1.00
6270;DHT22;3168;51.684;6.954;2023-03-26T04:53:36;8.30;1.00
6270;DHT22;3168;51.684;6.954;2023-03-26T04:56:08;8.20;1.00
6270;DHT22;3168;51.684;6.954;2023-03-26T04:58:31;8.20;1.00
6270;DHT22;3168;51.684;6.954;2023-03-26T05:00:58;8.20;1.00
6270;DHT22;3168;51.684;6.954;2023-03-26T05:03:23;8.20;1.00
6270;DHT22;3168;51.684;6.954;2023-03-26T05:05:50;8.20;1.00
6270;DHT22;3168;51.684;6.954;2023-03-26T05:08:16;8.20;1.00
6270;DHT22;3168;51.684;6.954;2023-03-26T05:10:41;8.20;1.00
6270;DHT22;3168;51.684;6.954;2023-03-26T05:13:07;8.20;1.00
6270;DHT22;3168;51.684;6.954;2023-03-26T05:15:33;8.10;1.00
6270;DHT22;3168;51.684;6.954;2023-03-26T05:17:59;8.20;1.00
6270;DHT22;3168;51.684;6.954;2023-03-26T05:20:25;8.30;1.00
6270;DHT22;3168;51.684;6.954;2023-03-26T05:22:51;8.40;1.00
6270;DHT22;3168;51.684;6.954;2023-03-26T05:25:16;8.30;1.00
6270;DHT22;3168;51.684;6.954;2023-03-26T05:27:42;8.30;1.00
6270;DHT22;3168;51.684;6.954;2023-03-26T05:30:08;8.20;1.00
6270;DHT22;3168;51.684;6.954;2023-03-26T05:32:34;8.20;1.00
6270;DHT22;3168;51.684;6.954;2023-03-26T05:35:00;8.20;1.00
6270;DHT22;3168;51.684;6.954;2023-03-26T05:37:27;8.20;1.00
6270;DHT22;3168;51.684;6.954;2023-03-26T05:39:53;8.10;1.00
6270;DHT22;3168;51.684;6.954;2023-03-26T05:42:18;8.10;1.00
6270;DHT22;3168;51.684;6.954;2023-03-26T05:44:44;8.00;1.00
6270;DHT22;3168;51.684;6.954;2023-03-26T05:47:10;8.00;1.00
6270;DHT22;3168;51.684;6.954;2023-03-26T05:49:36;8.10;1.00
6270;DHT22;3168;51.684;6.954;2023-03-26T05:52:01;8.00;1.00
6270;DHT22;3168;51.684;6.954;2023-03-26T05:54:27;8.00;1.00
6270;DHT22;3168;51.684;6.954;2023-03-26T05:56:53;8.00;1.00
6270;DHT22;3168;51.684;6.954;2023-03-26T05:59:19;7.90;1.00
6270;DHT22;3168;51.684;6.954;2023-03-26T06:01:45;7.90;1.00
6270;DHT22;3168;51.684;6.954;2023-03-26T06:04:11;7.90;1.00
6270;DHT22;3168;51.684;6.954;2023-03-26T06:06:36;7.90;3.80
6270;DHT22;3168;51.684;6.954;2023-03-26T06:09:02;7.90;4.40
6270;DHT22;3168;51.684;6.954;2023-03-26T06:11:28;7.90;5.70
6270;DHT22;3168;51.684;6.954;2023-03-26T06:13:54;7.90;7.00
6270;DHT22;3168;51.684;6.954;2023-03-26T06:16:20;7.90;8.00
6270;DHT22;3168;51.684;6.954;2023-03-26T06:18:46;7.90;8.50
6270;DHT22;3168;51.684;6.954;2023-03-26T06:21:11;7.80;9.40
6270;DHT22;3168;51.684;6.954;2023-03-26T06:23:37;7.80;11.60
6270;DHT22;3168;51.684;6.954;2023-03-26T06:26:03;7.80;12.50
6270;DHT22;3168;51.684;6.954;2023-03-26T06:28:29;7.80;13.70
6270;DHT22;3168;51.684;6.954;2023-03-26T06:30:57;7.80;14.40
6270;DHT22;3168;51.684;6.954;2023-03-26T06:33:21;7.80;16.00
6270;DHT22;3168;51.684;6.954;2023-03-26T06:35:47;7.80;16.50
6270;DHT22;3168;51.684;6.954;2023-03-26T06:38:12;7.80;16.80
6270;DHT22;3168;51.684;6.954;2023-03-26T06:40:39;7.90;22.20
6270;DHT22;3168;51.684;6.954;2023-03-26T06:43:05;7.80;22.20
6270;DHT22;3168;51.684;6.954;2023-03-26T06:45:31;7.90;22.50
6270;DHT22;3168;51.684;6.954;2023-03-26T06:47:56;7.90;23.60
6270;DHT22;3168;51.684;6.954;2023-03-26T06:50:22;7.90;24.50
6270;DHT22;3168;51.684;6.954;2023-03-26T06:52:48;7.90;28.10
6270;DHT22;3168;51.684;6.954;2023-03-26T06:55:14;7.90;28.20
6270;DHT22;3168;51.684;6.954;2023-03-26T06:57:40;7.90;29.60
6270;DHT22;3168;51.684;6.954;2023-03-26T07:00:06;8.00;31.20
6270;DHT22;3168;51.684;6.954;2023-03-26T07:02:33;8.00;32.40
6270;DHT22;3168;51.684;6.954;2023-03-26T07:04:58;8.00;30.00
6270;DHT22;3168;51.684;6.954;2023-03-26T07:07:24;7.90;32.30
6270;DHT22;3168;51.684;6.954;2023-03-26T07:09:50;7.90;32.40
6270;DHT22;3168;51.684;6.954;2023-03-26T07:12:16;7.90;32.30
6270;DHT22;3168;51.684;6.954;2023-03-26T07:14:42;7.90;32.30
6270;DHT22;3168;51.684;6.954;2023-03-26T07:17:08;8.00;35.70
6270;DHT22;3168;51.684;6.954;2023-03-26T07:19:33;8.00;32.40
6270;DHT22;3168;51.684;6.954;2023-03-26T07:22:00;8.00;32.20
6270;DHT22;3168;51.684;6.954;2023-03-26T07:24:26;8.10;32.50
6270;DHT22;3168;51.684;6.954;2023-03-26T07:27:00;8.00;29.80
6270;DHT22;3168;51.684;6.954;2023-03-26T07:29:26;8.00;30.10
6270;DHT22;3168;51.684;6.954;2023-03-26T07:31:53;8.10;33.20
6270;DHT22;3168;51.684;6.954;2023-03-26T07:34:24;8.10;31.80
6270;DHT22;3168;51.684;6.954;2023-03-26T07:36:54;8.10;35.10
6270;DHT22;3168;51.684;6.954;2023-03-26T07:44:52;8.20;41.50
6270;DHT22;3168;51.684;6.954;2023-03-26T07:47:20;8.30;42.00
6270;DHT22;3168;51.684;6.954;2023-03-26T07:49:44;8.40;42.20
6270;DHT22;3168;51.684;6.954;2023-03-26T07:52:10;8.40;40.20
6270;DHT22;3168;51.684;6.954;2023-03-26T07:54:37;8.40;38.40
6270;DHT22;3168;51.684;6.954;2023-03-26T07:57:04;8.30;38.80
6270;DHT22;3168;51.684;6.954;2023-03-26T07:59:50;8.30;39.70
6270;DHT22;3168;51.684;6.954;2023-03-26T08:02:31;8.30;39.50
6270;DHT22;3168;51.684;6.954;2023-03-26T08:05:19;8.40;42.30
6270;DHT22;3168;51.684;6.954;2023-03-26T08:07:53;8.40;41.40
6270;DHT22;3168;51.684;6.954;2023-03-26T08:10:25;8.40;42.30
6270;DHT22;3168;51.684;6.954;2023-03-26T08:16:11;8.40;42.30
6270;DHT22;3168;51.684;6.954;2023-03-26T08:19:01;8.50;45.00
6270;DHT22;3168;51.684;6.954;2023-03-26T08:21:25;8.50;42.50
6270;DHT22;3168;51.684;6.954;2023-03-26T08:24:17;8.50;47.00
6270;DHT22;3168;51.684;6.954;2023-03-26T08:26:53;8.50;42.30
6270;DHT22;3168;51.684;6.954;2023-03-26T08:29:24;8.50;46.20
6270;DHT22;3168;51.684;6.954;2023-03-26T08:31:45;8.50;45.90
6270;DHT22;3168;51.684;6.954;2023-03-26T08:34:11;8.50;48.90
6270;DHT22;3168;51.684;6.954;2023-03-26T08:36:37;8.50;51.40
6270;DHT22;3168;51.684;6.954;2023-03-26T08:39:03;8.60;48.50
6270;DHT22;3168;51.684;6.954;2023-03-26T08:46:59;8.60;51.30
6270;DHT22;3168;51.684;6.954;2023-03-26T08:49:32;8.60;54.60
6270;DHT22;3168;51.684;6.954;2023-03-26T08:54:45;8.70;56.20
6270;DHT22;3168;51.684;6.954;2023-03-26T08:57:22;8.60;51.80
6270;DHT22;3168;51.684;6.954;2023-03-26T08:59:57;8.50;50.00
6270;DHT22;3168;51.684;6.954;2023-03-26T09:05:16;8.60;53.60
6270;DHT22;3168;51.684;6.954;2023-03-26T09:07:53;8.70;53.50
6270;DHT22;3168;51.684;6.954;2023-03-26T09:13:23;8.80;51.80
6270;DHT22;3168;51.684;6.954;2023-03-26T09:16:06;8.70;48.60
6270;DHT22;3168;51.684;6.954;2023-03-26T09:19:19;8.70;51.50
6270;DHT22;3168;51.684;6.954;2023-03-26T09:21:43;8.80;53.80
6270;DHT22;3168;51.684;6.954;2023-03-26T09:32:27;8.80;59.80
6270;DHT22;3168;51.684;6.954;2023-03-26T09:37:50;8.80;60.70
6270;DHT22;3168;51.684;6.954;2023-03-26T09:40:14;8.70;57.70
6270;DHT22;3168;51.684;6.954;2023-03-26T09:43:05;8.80;61.00
6270;DHT22;3168;51.684;6.954;2023-03-26T09:45:49;8.70;58.50
6270;DHT22;3168;51.684;6.954;2023-03-26T09:48:28;8.70;56.20
6270;DHT22;3168;51.684;6.954;2023-03-26T09:51:16;8.70;53.10
6270;DHT22;3168;51.684;6.954;2023-03-26T09:54:00;8.70;53.20
6270;DHT22;3168;51.684;6.954;2023-03-26T09:56:30;8.70;51.80
6270;DHT22;3168;51.684;6.954;2023-03-26T09:58:58;8.70;50.60
6270;DHT22;3168;51.684;6.954;2023-03-26T10:01:24;8.70;51.30
6270;DHT22;3168;51.684;6.954;2023-03-26T10:03:57;8.80;51.90
6270;DHT22;3168;51.684;6.954;2023-03-26T10:07:00;8.80;53.50
6270;DHT22;3168;51.684;6.954;2023-03-26T10:09:17;8.90;57.10
6270;DHT22;3168;51.684;6.954;2023-03-26T10:14:19;8.90;46.30
6270;DHT22;3168;51.684;6.954;2023-03-26T10:16:58;8.90;47.10
6270;DHT22;3168;51.684;6.954;2023-03-26T10:19:35;9.00;45.60
6270;DHT22;3168;51.684;6.954;2023-03-26T10:22:22;8.90;38.50
6270;DHT22;3168;51.684;6.954;2023-03-26T10:24:55;8.90;34.90
6270;DHT22;3168;51.684;6.954;2023-03-26T10:30:24;8.80;28.70
6270;DHT22;3168;51.684;6.954;2023-03-26T10:33:16;8.80;29.00
6270;DHT22;3168;51.684;6.954;2023-03-26T10:36:01;8.80;33.20
6270;DHT22;3168;51.684;6.954;2023-03-26T10:38:39;8.90;34.80
6270;DHT22;3168;51.684;6.954;2023-03-26T10:41:17;8.80;33.00
6270;DHT22;3168;51.684;6.954;2023-03-26T10:43:51;8.90;31.50
6270;DHT22;3168;51.684;6.954;2023-03-26T10:46:23;8.90;27.60
6270;DHT22;3168;51.684;6.954;2023-03-26T10:49:40;8.90;25.00
6270;DHT22;3168;51.684;6.954;2023-03-26T10:51:49;8.90;25.60
6270;DHT22;3168;51.684;6.954;2023-03-26T10:54:25;8.90;25.00
6270;DHT22;3168;51.684;6.954;2023-03-26T10:56:52;9.00;26.10
6270;DHT22;3168;51.684;6.954;2023-03-26T10:59:18;9.10;28.60
6270;DHT22;3168;51.684;6.954;2023-03-26T11:04:36;9.10;22.60
6270;DHT22;3168;51.684;6.954;2023-03-26T11:07:16;9.00;21.70
6270;DHT22;3168;51.684;6.954;2023-03-26T11:09:43;9.00;22.10
6270;DHT22;3168;51.684;6.954;2023-03-26T11:12:20;9.00;21.70
6270;DHT22;3168;51.684;6.954;2023-03-26T11:14:55;9.00;23.80
6270;DHT22;3168;51.684;6.954;2023-03-26T11:17:37;9.00;21.70
6270;DHT22;3168;51.684;6.954;2023-03-26T11:20:04;8.90;13.30
6270;DHT22;3168;51.684;6.954;2023-03-26T11:22:37;8.80;9.80
6270;DHT22;3168;51.684;6.954;2023-03-26T11:25:11;8.90;12.90
6270;DHT22;3168;51.684;6.954;2023-03-26T11:27:42;9.00;16.10
6270;DHT22;3168;51.684;6.954;2023-03-26T11:30:19;8.90;9.50
6270;DHT22;3168;51.684;6.954;2023-03-26T11:32:45;8.80;6.80
6270;DHT22;3168;51.684;6.954;2023-03-26T11:35:16;8.80;8.70
6270;DHT22;3168;51.684;6.954;2023-03-26T11:37:41;8.80;9.10
6270;DHT22;3168;51.684;6.954;2023-03-26T11:40:12;8.80;5.00
6270;DHT22;3168;51.684;6.954;2023-03-26T11:42:35;8.90;5.70
6270;DHT22;3168;51.684;6.954;2023-03-26T11:45:02;9.00;9.10
6270;DHT22;3168;51.684;6.954;2023-03-26T11:47:32;8.90;6.20
6270;DHT22;3168;51.684;6.954;2023-03-26T11:49:57;9.10;7.00
6270;DHT22;3168;51.684;6.954;2023-03-26T11:52:23;9.00;5.40
6270;DHT22;3168;51.684;6.954;2023-03-26T11:54:48;9.00;5.90
6270;DHT22;3168;51.684;6.954;2023-03-26T11:57:17;9.00;9.00
6270;DHT22;3168;51.684;6.954;2023-03-26T12:00:00;8.90;6.90
6270;DHT22;3168;51.684;6.954;2023-03-26T12:02:26;8.90;6.80
6270;DHT22;3168;51.684;6.954;2023-03-26T12:04:51;9.00;9.30
6270;DHT22;3168;51.684;6.954;2023-03-26T12:07:18;9.00;8.60
6270;DHT22;3168;51.684;6.954;2023-03-26T12:09:49;9.00;5.50
6270;DHT22;3168;51.684;6.954;2023-03-26T12:12:14;9.10;4.40
6270;DHT22;3168;51.684;6.954;2023-03-26T12:14:40;9.00;1.00
6270;DHT22;3168;51.684;6.954;2023-03-26T12:17:07;9.00;1.00
6270;DHT22;3168;51.684;6.954;2023-03-26T12:19:34;9.10;2.00
6270;DHT22;3168;51.684;6.954;2023-03-26T12:21:58;8.90;1.00
6270;DHT22;3168;51.684;6.954;2023-03-26T12:24:30;8.90;1.00
6270;DHT22;3168;51.684;6.954;2023-03-26T12:26:55;8.90;1.00
6270;DHT22;3168;51.684;6.954;2023-03-26T12:29:21;9.00;1.00
6270;DHT22;3168;51.684;6.954;2023-03-26T12:32:02;9.10;1.00
6270;DHT22;3168;51.684;6.954;2023-03-26T12:34:27;9.10;1.00
6270;DHT22;3168;51.684;6.954;2023-03-26T12:36:50;9.00;1.00
6270;DHT22;3168;51.684;6.954;2023-03-26T12:39:31;9.00;1.00
6270;DHT22;3168;51.684;6.954;2023-03-26T12:41:58;9.10;1.00
6270;DHT22;3168;51.684;6.954;2023-03-26T12:44:27;9.00;1.00
6270;DHT22;3168;51.684;6.954;2023-03-26T12:46:51;9.10;1.00
6270;DHT22;3168;51.684;6.954;2023-03-26T12:49:18;9.10;1.00
6270;DHT22;3168;51.684;6.954;2023-03-26T12:51:47;9.10;1.00
6270;DHT22;3168;51.684;6.954;2023-03-26T12:54:24;9.00;1.00
6270;DHT22;3168;51.684;6.954;2023-03-26T12:57:14;9.10;1.00
6270;DHT22;3168;51.684;6.954;2023-03-26T13:02:39;9.10;1.00
6270;DHT22;3168;51.684;6.954;2023-03-26T13:05:04;9.10;1.00
6270;DHT22;3168;51.684;6.954;2023-03-26T13:08:03;9.00;1.00
6270;DHT22;3168;51.684;6.954;2023-03-26T13:13:27;8.80;1.00
6270;DHT22;3168;51.684;6.954;2023-03-26T13:15:49;8.90;1.00
6270;DHT22;3168;51.684;6.954;2023-03-26T13:18:36;9.10;1.00
6270;DHT22;3168;51.684;6.954;2023-03-26T13:21:10;9.20;1.00
6270;DHT22;3168;51.684;6.954;2023-03-26T13:23:59;9.20;1.00
6270;DHT22;3168;51.684;6.954;2023-03-26T13:29:02;9.20;1.00
6270;DHT22;3168;51.684;6.954;2023-03-26T13:31:29;9.30;1.00
6270;DHT22;3168;51.684;6.954;2023-03-26T13:34:22;9.50;1.00
6270;DHT22;3168;51.684;6.954;2023-03-26T13:36:51;9.50;1.00
6270;DHT22;3168;51.684;6.954;2023-03-26T13:39:26;9.20;1.00
6270;DHT22;3168;51.684;6.954;2023-03-26T13:43:02;9.30;1.00
6270;DHT22;3168;51.684;6.954;2023-03-26T13:44:45;9.20;1.00
6270;DHT22;3168;51.684;6.954;2023-03-26T13:47:12;9.20;1.00
6270;DHT22;3168;51.684;6.954;2023-03-26T13:49:40;9.00;1.00
6270;DHT22;3168;51.684;6.954;2023-03-26T13:52:09;8.90;9.20
6270;DHT22;3168;51.684;6.954;2023-03-26T13:54:42;9.00;15.10
6270;DHT22;3168;51.684;6.954;2023-03-26T13:57:10;9.20;17.10
6270;DHT22;3168;51.684;6.954;2023-03-26T13:59:37;9.00;13.60
6270;DHT22;3168;51.684;6.954;2023-03-26T14:02:04;8.80;17.00
6270;DHT22;3168;51.684;6.954;2023-03-26T14:04:31;8.80;19.80
6270;DHT22;3168;51.684;6.954;2023-03-26T14:06:58;8.90;24.90
6270;DHT22;3168;51.684;6.954;2023-03-26T14:09:26;9.00;25.40
6270;DHT22;3168;51.684;6.954;2023-03-26T14:12:01;8.90;20.80
6270;DHT22;3168;51.684;6.954;2023-03-26T14:14:42;8.90;19.70
6270;DHT22;3168;51.684;6.954;2023-03-26T14:17:15;8.80;19.80
6270;DHT22;3168;51.684;6.954;2023-03-26T14:20:02;8.90;16.20
6270;DHT22;3168;51.684;6.954;2023-03-26T14:25:14;8.70;1.00
6270;DHT22;3168;51.684;6.954;2023-03-26T14:27:43;8.70;4.90
6270;DHT22;3168;51.684;6.954;2023-03-26T14:30:29;8.60;1.00
6270;DHT22;3168;51.684;6.954;2023-03-26T14:32:56;8.50;3.50
6270;DHT22;3168;51.684;6.954;2023-03-26T14:35:27;8.40;11.80
6270;DHT22;3168;51.684;6.954;2023-03-26T14:40:47;8.40;24.70
6270;DHT22;3168;51.684;6.954;2023-03-26T14:43:41;8.50;29.00
6270;DHT22;3168;51.684;6.954;2023-03-26T14:46:16;8.40;29.00
6270;DHT22;3168;51.684;6.954;2023-03-26T14:49:23;8.30;26.10
6270;DHT22;3168;51.684;6.954;2023-03-26T14:54:19;8.30;35.70
6270;DHT22;3168;51.684;6.954;2023-03-26T14:57:10;8.20;34.70
6270;DHT22;3168;51.684;6.954;2023-03-26T14:59:51;8.20;37.60
6270;DHT22;3168;51.684;6.954;2023-03-26T15:05:03;8.20;32.90
6270;DHT22;3168;51.684;6.954;2023-03-26T15:07:42;8.30;33.00
6270;DHT22;3168;51.684;6.954;2023-03-26T15:10:24;8.30;28.10
6270;DHT22;3168;51.684;6.954;2023-03-26T15:12:59;8.30;30.10
6270;DHT22;3168;51.684;6.954;2023-03-26T15:15:30;8.30;29.00
6270;DHT22;3168;51.684;6.954;2023-03-26T15:17:56;8.20;12.40
6270;DHT22;3168;51.684;6.954;2023-03-26T15:28:53;7.90;13.60
6270;DHT22;3168;51.684;6.954;2023-03-26T15:31:39;7.70;2.50
6270;DHT22;3168;51.684;6.954;2023-03-26T15:36:58;7.70;1.80
6270;DHT22;3168;51.684;6.954;2023-03-26T15:39:38;7.70;2.50
6270;DHT22;3168;51.684;6.954;2023-03-26T15:42:24;7.80;4.50
6270;DHT22;3168;51.684;6.954;2023-03-26T15:44:58;7.70;1.00
6270;DHT22;3168;51.684;6.954;2023-03-26T15:47:32;7.80;1.00
6270;DHT22;3168;51.684;6.954;2023-03-26T15:50:04;8.00;1.00
6270;DHT22;3168;51.684;6.954;2023-03-26T15:52:32;8.00;1.00
6270;DHT22;3168;51.684;6.954;2023-03-26T15:55:32;7.90;1.00
6270;DHT22;3168;51.684;6.954;2023-03-26T15:58:01;7.80;1.00
6270;DHT22;3168;51.684;6.954;2023-03-26T16:00:25;7.80;1.00
6270;DHT22;3168;51.684;6.954;2023-03-26T16:03:18;7.80;1.00
6270;DHT22;3168;51.684;6.954;2023-03-26T16:05:56;7.80;1.00
6270;DHT22;3168;51.684;6.954;2023-03-26T16:08:43;7.90;1.00
6270;DHT22;3168;51.684;6.954;2023-03-26T16:11:06;7.90;1.00
6270;DHT22;3168;51.684;6.954;2023-03-26T16:13:36;8.00;1.00
6270;DHT22;3168;51.684;6.954;2023-03-26T16:16:18;8.00;1.00
6270;DHT22;3168;51.684;6.954;2023-03-26T16:18:45;8.00;1.00
6270;DHT22;3168;51.684;6.954;2023-03-26T16:21:37;7.90;1.00
6270;DHT22;3168;51.684;6.954;2023-03-26T16:24:10;7.90;1.00
6270;DHT22;3168;51.684;6.954;2023-03-26T16:26:51;8.00;1.00
6270;DHT22;3168;51.684;6.954;2023-03-26T16:29:18;8.00;1.00
6270;DHT22;3168;51.684;6.954;2023-03-26T16:34:24;8.00;1.00
6270;DHT22;3168;51.684;6.954;2023-03-26T16:36:47;8.00;1.00
6270;DHT22;3168;51.684;6.954;2023-03-26T16:39:18;8.10;1.00
6270;DHT22;3168;51.684;6.954;2023-03-26T16:41:54;8.10;1.00
6270;DHT22;3168;51.684;6.954;2023-03-26T16:44:26;8.00;1.00
6270;DHT22;3168;51.684;6.954;2023-03-26T16:49:27;7.90;1.00
6270;DHT22;3168;51.684;6.954;2023-03-26T16:52:03;7.90;1.00
6270;DHT22;3168;51.684;6.954;2023-03-26T16:54:49;8.00;1.00
6270;DHT22;3168;51.684;6.954;2023-03-26T16:57:19;7.90;1.00
6270;DHT22;3168;51.684;6.954;2023-03-26T16:59:50;7.90;1.00
6270;DHT22;3168;51.684;6.954;2023-03-26T17:02:21;7.90;1.00
6270;DHT22;3168;51.684;6.954;2023-03-26T17:04:49;7.90;1.00
6270;DHT22;3168;51.684;6.954;2023-03-26T17:07:37;7.80;1.00
6270;DHT22;3168;51.684;6.954;2023-03-26T17:10:24;7.80;1.00
6270;DHT22;3168;51.684;6.954;2023-03-26T17:12:50;7.80;1.00
6270;DHT22;3168;51.684;6.954;2023-03-26T17:15:26;7.70;1.00
6270;DHT22;3168;51.684;6.954;2023-03-26T17:17:56;7.60;1.00
6270;DHT22;3168;51.684;6.954;2023-03-26T17:20:32;7.60;1.00
6270;DHT22;3168;51.684;6.954;2023-03-26T17:23:03;7.70;1.00
6270;DHT22;3168;51.684;6.954;2023-03-26T17:25:34;7.60;1.00
6270;DHT22;3168;51.684;6.954;2023-03-26T17:33:28;7.50;1.00
6270;DHT22;3168;51.684;6.954;2023-03-26T17:36:14;7.40;1.00
6270;DHT22;3168;51.684;6.954;2023-03-26T17:38:58;7.30;1.00
6270;DHT22;3168;51.684;6.954;2023-03-26T17:41:50;7.30;1.00
6270;DHT22;3168;51.684;6.954;2023-03-26T17:46:52;7.30;1.00
6270;DHT22;3168;51.684;6.954;2023-03-26T17:49:20;7.30;1.00
6270;DHT22;3168;51.684;6.954;2023-03-26T17:54:38;7.20;1.00
6270;DHT22;3168;51.684;6.954;2023-03-26T17:57:05;7.20;1.00
6270;DHT22;3168;51.684;6.954;2023-03-26T17:59:30;7.20;1.00
6270;DHT22;3168;51.684;6.954;2023-03-26T18:01:57;7.20;1.00
6270;DHT22;3168;51.684;6.954;2023-03-26T18:04:27;7.10;1.00
6270;DHT22;3168;51.684;6.954;2023-03-26T18:07:00;7.10;1.00
6270;DHT22;3168;51.684;6.954;2023-03-26T18:13:01;7.10;1.00
6270;DHT22;3168;51.684;6.954;2023-03-26T18:15:12;7.00;1.00
6270;DHT22;3168;51.684;6.954;2023-03-26T18:17:38;7.00;1.00
6270;DHT22;3168;51.684;6.954;2023-03-26T18:20:04;7.00;1.00